createdAt,value
2018-07-26T00:00:09.985Z,14.23
2018-07-26T00:02:38.455Z,14.40
2018-07-26T00:05:06.981Z,10.53
2018-07-26T00:07:35.723Z,11.23
2018-07-26T00:10:05.135Z,11.07
2018-07-26T00:12:33.530Z,11.37
2018-07-26T00:15:02.102Z,11.40
2018-07-26T00:17:30.492Z,13.67
2018-07-26T00:19:58.893Z,13.57
2018-07-26T00:22:27.415Z,14.93
2018-07-26T00:24:55.857Z,12.87
2018-07-26T00:27:24.232Z,11.67
2018-07-26T00:29:52.657Z,13.30
2018-07-26T00:32:21.080Z,14.93
2018-07-26T00:34:49.468Z,16.37
2018-07-26T00:37:18.080Z,14.10
2018-07-26T00:39:46.631Z,13.80
2018-07-26T00:42:15.287Z,15.70
2018-07-26T00:44:43.721Z,15.53
2018-07-26T00:47:12.250Z,19.00
2018-07-26T00:49:40.850Z,16.63
2018-07-26T00:52:09.294Z,13.50
2018-07-26T00:54:37.693Z,13.30
2018-07-26T00:57:06.297Z,19.30
2018-07-26T00:59:34.688Z,16.27
2018-07-26T01:02:03.099Z,15.70
2018-07-26T01:04:31.764Z,20.20
2018-07-26T01:07:00.168Z,18.60
2018-07-26T01:09:28.677Z,17.63
2018-07-26T01:11:57.309Z,23.50
2018-07-26T01:14:25.705Z,20.50
2018-07-26T01:16:54.208Z,19.27
2018-07-26T01:19:22.608Z,17.43
2018-07-26T01:21:50.996Z,23.27
2018-07-26T01:24:19.432Z,20.73
2018-07-26T01:26:47.836Z,17.17
2018-07-26T01:29:18.806Z,15.43
2018-07-26T01:31:47.700Z,16.57
2018-07-26T01:34:16.085Z,16.10
2018-07-26T01:36:44.524Z,13.77
2018-07-26T01:39:12.916Z,14.60
2018-07-26T01:41:41.369Z,17.73
2018-07-26T01:44:17.900Z,15.43
2018-07-26T01:46:46.602Z,13.00
2018-07-26T01:49:14.992Z,14.53
2018-07-26T01:51:43.517Z,14.90
2018-07-26T01:54:11.944Z,21.27
2018-07-26T01:56:40.347Z,16.60
2018-07-26T01:59:08.843Z,17.40
2018-07-26T02:01:37.474Z,17.03
2018-07-26T02:04:05.896Z,17.80
2018-07-26T02:06:34.471Z,17.67
2018-07-26T02:09:03.313Z,20.87
2018-07-26T02:11:31.733Z,20.73
2018-07-26T02:14:00.104Z,19.17
2018-07-26T02:16:28.537Z,17.30
2018-07-26T02:18:56.961Z,19.17
2018-07-26T02:21:25.385Z,18.40
2018-07-26T02:23:53.765Z,16.80
2018-07-26T02:26:22.374Z,16.37
2018-07-26T02:28:50.782Z,20.20
2018-07-26T02:31:19.429Z,19.30
2018-07-26T02:33:48.128Z,19.87
2018-07-26T02:36:16.541Z,19.83
2018-07-26T02:38:44.993Z,17.37
2018-07-26T02:41:13.429Z,17.30
2018-07-26T02:43:41.837Z,19.50
2018-07-26T02:46:10.525Z,17.90
2018-07-26T02:48:38.912Z,18.30
2018-07-26T02:51:07.330Z,20.07
2018-07-26T02:53:36.006Z,19.47
2018-07-26T02:56:04.417Z,18.87
2018-07-26T02:58:32.871Z,19.37
2018-07-26T03:01:01.706Z,20.90
2018-07-26T03:03:30.130Z,21.60
2018-07-26T03:05:58.525Z,19.47
2018-07-26T03:08:26.977Z,20.43
2018-07-26T03:10:55.381Z,18.47
2018-07-26T03:13:23.808Z,18.00
2018-07-26T03:15:52.213Z,18.50
2018-07-26T03:18:20.739Z,18.37
2018-07-26T03:20:49.582Z,23.10
2018-07-26T03:23:17.954Z,17.63
2018-07-26T03:25:46.069Z,18.67
2018-07-26T03:28:14.506Z,21.00
2018-07-26T03:30:43.125Z,20.37
2018-07-26T03:33:11.739Z,19.80
2018-07-26T03:35:40.150Z,18.03
2018-07-26T03:38:08.574Z,18.13
2018-07-26T03:40:36.984Z,19.77
2018-07-26T03:43:05.377Z,18.43
2018-07-26T03:45:33.908Z,26.53
2018-07-26T03:48:02.635Z,17.87
2018-07-26T03:50:31.032Z,19.83
2018-07-26T03:52:59.450Z,19.17
2018-07-26T03:55:27.856Z,18.03
2018-07-26T03:57:56.757Z,17.70
2018-07-26T04:00:25.088Z,18.87
2018-07-26T04:02:53.534Z,21.80
2018-07-26T04:05:21.925Z,19.73
2018-07-26T04:07:50.358Z,25.10
2018-07-26T04:10:19.153Z,24.93
2018-07-26T04:12:47.536Z,20.47
2018-07-26T04:15:15.980Z,20.17
2018-07-26T04:17:44.801Z,20.53
2018-07-26T04:20:13.196Z,20.70
2018-07-26T04:22:41.780Z,21.60
2018-07-26T04:25:10.204Z,20.73
2018-07-26T04:27:38.720Z,24.70
2018-07-26T04:30:07.145Z,22.60
2018-07-26T04:32:35.560Z,21.60
2018-07-26T04:35:04.036Z,21.43
2018-07-26T04:37:32.449Z,24.87
2018-07-26T04:40:00.916Z,22.50
2018-07-26T04:42:29.477Z,22.30
2018-07-26T04:44:57.975Z,23.87
2018-07-26T04:47:26.384Z,22.63
2018-07-26T04:49:54.792Z,19.77
2018-07-26T04:52:23.273Z,22.23
2018-07-26T04:54:51.696Z,22.57
2018-07-26T04:57:20.084Z,21.10
2018-07-26T04:59:48.168Z,24.90
2018-07-26T05:02:16.321Z,24.20
2018-07-26T05:04:44.728Z,21.80
2018-07-26T05:07:13.116Z,21.53
2018-07-26T05:09:41.703Z,23.10
2018-07-26T05:12:10.180Z,20.17
2018-07-26T05:14:38.588Z,21.57
2018-07-26T05:17:07.336Z,22.43
2018-07-26T05:19:35.722Z,31.53
2018-07-26T05:22:04.209Z,25.20
2018-07-26T05:24:32.757Z,22.83
2018-07-26T05:27:01.185Z,23.93
2018-07-26T05:29:29.677Z,21.47
2018-07-26T05:31:58.148Z,19.63
2018-07-26T05:34:26.534Z,23.13
2018-07-26T05:36:54.920Z,22.30
2018-07-26T05:39:23.358Z,21.03
2018-07-26T05:41:51.768Z,18.90
2018-07-26T05:44:20.669Z,22.37
2018-07-26T05:46:49.056Z,25.60
2018-07-26T05:49:17.464Z,20.87
2018-07-26T05:51:45.860Z,29.10
2018-07-26T05:54:14.273Z,22.93
2018-07-26T05:56:42.766Z,31.30
2018-07-26T06:01:49.466Z,24.63
2018-07-26T06:04:17.881Z,25.70
2018-07-26T06:06:46.305Z,24.90
2018-07-26T06:09:14.712Z,22.70
2018-07-26T06:11:43.116Z,24.20
2018-07-26T06:14:11.599Z,28.77
2018-07-26T06:16:40.244Z,22.17
2018-07-26T06:19:08.649Z,21.03
2018-07-26T06:21:37.053Z,18.93
2018-07-26T06:24:05.817Z,19.77
2018-07-26T06:26:34.246Z,23.67
2018-07-26T06:29:02.683Z,20.77
2018-07-26T06:31:31.081Z,26.63
2018-07-26T06:33:59.491Z,24.70
2018-07-26T06:36:27.931Z,23.40
2018-07-26T06:38:56.391Z,21.90
2018-07-26T06:41:24.781Z,23.67
2018-07-26T06:43:53.222Z,24.10
2018-07-26T06:46:21.809Z,20.53
2018-07-26T06:48:50.260Z,20.03
2018-07-26T06:51:19.041Z,23.03
2018-07-26T06:53:47.608Z,22.17
2018-07-26T06:56:16.009Z,17.33
2018-07-26T06:58:44.409Z,17.87
2018-07-26T07:01:12.824Z,15.53
2018-07-26T07:03:41.244Z,16.30
2018-07-26T07:06:09.641Z,17.50
2018-07-26T07:08:38.264Z,22.00
2018-07-26T07:11:06.672Z,16.80
2018-07-26T07:13:35.127Z,23.30
2018-07-26T07:16:03.605Z,15.17
2018-07-26T07:18:31.991Z,19.40
2018-07-26T07:21:00.381Z,18.77
2018-07-26T07:23:28.808Z,24.17
2018-07-26T07:25:57.219Z,22.67
2018-07-26T07:28:25.652Z,20.17
2018-07-26T07:30:54.307Z,24.93
2018-07-26T07:33:22.720Z,22.07
2018-07-26T07:35:51.140Z,20.80
2018-07-26T07:38:19.558Z,25.60
2018-07-26T07:40:47.955Z,22.20
2018-07-26T07:43:16.388Z,24.63
2018-07-26T07:45:44.873Z,18.33
2018-07-26T07:48:13.260Z,17.13
2018-07-26T07:50:41.653Z,21.43
2018-07-26T07:53:10.141Z,17.03
2018-07-26T07:55:38.581Z,17.77
2018-07-26T07:58:06.998Z,12.70
2018-07-26T08:00:35.450Z,15.20
2018-07-26T08:03:03.918Z,11.73
2018-07-26T08:05:32.328Z,10.33
2018-07-26T08:08:00.752Z,18.20
2018-07-26T08:10:29.177Z,10.80
2018-07-26T08:12:57.587Z,10.17
2018-07-26T08:15:26.021Z,15.13
2018-07-26T08:17:54.433Z,13.10
2018-07-26T08:20:23.022Z,10.47
2018-07-26T08:22:51.532Z,10.17
2018-07-26T08:25:19.976Z,9.00
2018-07-26T08:27:48.595Z,13.50
2018-07-26T08:30:16.692Z,13.90
2018-07-26T08:32:45.144Z,15.23
2018-07-26T08:35:13.325Z,8.80
2018-07-26T08:37:41.711Z,8.07
2018-07-26T08:40:10.154Z,10.47
2018-07-26T08:42:38.612Z,10.00
2018-07-26T08:45:07.203Z,11.33
2018-07-26T08:47:35.607Z,9.97
2018-07-26T08:50:04.781Z,7.00
2018-07-26T08:52:33.464Z,6.37
2018-07-26T08:55:02.119Z,9.33
2018-07-26T08:57:30.675Z,6.07
2018-07-26T08:59:59.084Z,7.30
2018-07-26T09:02:27.576Z,10.83
2018-07-26T09:04:56.059Z,9.37
2018-07-26T09:07:24.501Z,8.17
2018-07-26T09:09:52.920Z,6.13
2018-07-26T09:12:21.345Z,7.40
2018-07-26T09:14:49.723Z,6.10
2018-07-26T09:17:18.151Z,5.30
2018-07-26T09:19:46.584Z,4.43
2018-07-26T09:22:15.082Z,6.50
2018-07-26T09:24:43.476Z,8.30
2018-07-26T09:27:13.097Z,6.23
2018-07-26T09:29:41.588Z,6.17
2018-07-26T09:32:10.256Z,6.20
2018-07-26T09:34:38.667Z,7.13
2018-07-26T09:37:07.133Z,5.10
2018-07-26T09:39:35.735Z,6.67
2018-07-26T09:42:04.257Z,4.60
2018-07-26T09:44:32.674Z,7.40
2018-07-26T09:47:01.108Z,5.73
2018-07-26T09:49:29.709Z,5.90
2018-07-26T09:51:58.117Z,8.20
2018-07-26T09:54:26.695Z,5.47
2018-07-26T09:56:55.147Z,9.57
2018-07-26T09:59:23.512Z,4.23
2018-07-26T10:01:52.133Z,6.63
2018-07-26T10:04:20.620Z,4.60
2018-07-26T10:06:49.066Z,5.43
2018-07-26T10:09:17.691Z,4.67
2018-07-26T10:11:46.127Z,7.33
2018-07-26T10:14:14.476Z,5.10
2018-07-26T10:16:43.199Z,8.03
2018-07-26T10:19:11.583Z,5.37
2018-07-26T10:21:40.011Z,4.87
2018-07-26T10:24:08.673Z,4.40
2018-07-26T10:26:37.056Z,4.80
2018-07-26T10:29:05.520Z,8.60
2018-07-26T10:31:34.216Z,9.70
2018-07-26T10:34:02.637Z,5.57
2018-07-26T10:36:31.024Z,10.20
2018-07-26T10:38:59.674Z,5.67
2018-07-26T10:41:28.192Z,4.60
2018-07-26T10:43:56.590Z,6.40
2018-07-26T10:46:25.312Z,6.60
2018-07-26T10:48:53.384Z,7.10
2018-07-26T10:51:21.904Z,7.03
2018-07-26T10:53:50.292Z,5.10
2018-07-26T10:56:18.712Z,4.67
2018-07-26T10:58:47.393Z,10.63
2018-07-26T11:01:15.839Z,3.80
2018-07-26T11:03:44.267Z,5.53
2018-07-26T11:06:12.623Z,12.00
2018-07-26T11:08:41.053Z,4.53
2018-07-26T11:11:09.477Z,5.87
2018-07-26T11:13:37.853Z,4.73
2018-07-26T11:16:06.299Z,4.03
2018-07-26T11:18:34.680Z,6.43
2018-07-26T11:21:03.072Z,7.20
2018-07-26T11:23:31.530Z,4.47
2018-07-26T11:25:59.977Z,4.93
2018-07-26T11:28:28.452Z,6.03
2018-07-26T11:30:56.892Z,4.90
2018-07-26T11:33:25.276Z,9.10
2018-07-26T11:35:53.749Z,6.13
2018-07-26T11:38:22.100Z,7.53
2018-07-26T11:40:50.520Z,4.30
2018-07-26T11:43:18.961Z,4.00
2018-07-26T11:45:47.419Z,6.40
2018-07-26T11:48:15.823Z,7.00
2018-07-26T11:50:44.201Z,5.67
2018-07-26T11:53:12.606Z,3.60
2018-07-26T11:55:41.025Z,5.90
2018-07-26T11:58:09.468Z,6.97
2018-07-26T12:00:37.816Z,6.90
2018-07-26T12:03:06.447Z,6.23
2018-07-26T12:05:34.820Z,4.40
2018-07-26T12:08:03.286Z,3.60
2018-07-26T12:10:31.713Z,5.67
2018-07-26T12:13:00.078Z,8.67
2018-07-26T12:15:28.475Z,7.23
2018-07-26T12:17:56.982Z,13.53
2018-07-26T12:20:25.366Z,8.30
2018-07-26T12:22:54.107Z,3.57
2018-07-26T12:25:22.513Z,6.10
2018-07-26T12:27:50.897Z,5.10
2018-07-26T12:30:19.524Z,3.93
2018-07-26T12:32:47.925Z,9.53
2018-07-26T12:35:16.337Z,8.87
2018-07-26T12:37:44.740Z,4.00
2018-07-26T12:40:13.137Z,6.60
2018-07-26T12:42:41.522Z,6.00
2018-07-26T12:45:09.947Z,6.57
2018-07-26T12:47:38.496Z,3.10
2018-07-26T12:50:06.772Z,7.70
2018-07-26T12:52:35.192Z,9.00
2018-07-26T12:55:03.660Z,4.90
2018-07-26T12:57:32.141Z,5.37
2018-07-26T13:00:00.548Z,4.77
2018-07-26T13:02:29.133Z,3.23
2018-07-26T13:04:58.072Z,6.90
2018-07-26T13:07:26.480Z,3.93
2018-07-26T13:09:55.109Z,5.33
2018-07-26T13:12:23.562Z,3.83
2018-07-26T13:14:51.984Z,6.23
2018-07-26T13:17:20.398Z,4.57
2018-07-26T13:19:48.789Z,6.97
2018-07-26T13:22:17.204Z,5.27
2018-07-26T13:24:45.612Z,5.93
2018-07-26T13:27:14.004Z,4.03
2018-07-26T13:29:42.433Z,7.67
2018-07-26T13:32:10.849Z,6.03
2018-07-26T13:34:39.316Z,3.53
2018-07-26T13:37:07.740Z,7.20
2018-07-26T13:39:36.132Z,4.20
2018-07-26T13:42:04.706Z,6.47
2018-07-26T13:44:33.199Z,9.70
2018-07-26T13:47:01.610Z,4.03
2018-07-26T13:49:30.045Z,3.80
2018-07-26T13:51:58.456Z,5.93
2018-07-26T13:54:27.036Z,6.70
2018-07-26T13:56:55.436Z,6.23
2018-07-26T13:59:23.826Z,4.77
2018-07-26T14:01:52.264Z,8.00
2018-07-26T14:04:20.650Z,3.27
2018-07-26T14:06:49.048Z,3.03
2018-07-26T14:09:17.536Z,3.80
2018-07-26T14:11:45.949Z,6.63
2018-07-26T14:14:14.359Z,6.07
2018-07-26T14:16:42.767Z,3.30
2018-07-26T14:19:11.191Z,6.77
2018-07-26T14:21:39.584Z,4.30
2018-07-26T14:24:13.392Z,7.10
2018-07-26T14:26:41.816Z,6.20
2018-07-26T14:29:10.216Z,9.20
2018-07-26T14:31:38.847Z,9.27
2018-07-26T14:34:07.244Z,5.07
2018-07-26T14:36:35.650Z,6.03
2018-07-26T14:39:06.393Z,6.50
2018-07-26T14:41:34.801Z,5.70
2018-07-26T14:44:03.213Z,9.93
2018-07-26T14:46:31.617Z,9.53
2018-07-26T14:49:00.120Z,5.70
2018-07-26T14:51:28.560Z,5.03
2018-07-26T14:53:56.958Z,8.43
2018-07-26T14:56:25.377Z,6.90
2018-07-26T14:58:53.906Z,6.80
2018-07-26T15:01:22.032Z,5.83
2018-07-26T15:03:50.432Z,7.87
2018-07-26T15:06:19.027Z,5.47
2018-07-26T15:08:48.131Z,7.60
2018-07-26T15:11:17.119Z,5.23
2018-07-26T15:13:45.736Z,11.53
2018-07-26T15:16:14.150Z,8.33
2018-07-26T15:18:42.904Z,10.37
2018-07-26T15:21:11.709Z,5.90
2018-07-26T15:23:40.161Z,7.37
2018-07-26T15:26:08.618Z,6.83
2018-07-26T15:28:36.956Z,7.27
2018-07-26T15:31:05.620Z,5.10
2018-07-26T15:33:34.043Z,4.90
2018-07-26T15:36:02.525Z,6.07
2018-07-26T15:38:30.908Z,2.90
2018-07-26T15:40:59.337Z,3.60
2018-07-26T15:43:28.457Z,3.93
2018-07-26T15:45:57.036Z,4.40
2018-07-26T15:48:25.420Z,2.70
2018-07-26T15:50:54.581Z,4.43
2018-07-26T15:53:22.976Z,3.73
2018-07-26T15:55:51.404Z,3.00
2018-07-26T15:58:19.807Z,4.30
2018-07-26T16:00:48.209Z,2.90
2018-07-26T16:03:16.668Z,6.13
2018-07-26T16:05:45.125Z,3.17
2018-07-26T16:08:13.583Z,3.87
2018-07-26T16:10:42.032Z,4.77
2018-07-26T16:13:10.436Z,5.30
2018-07-26T16:15:38.580Z,4.03
2018-07-26T16:18:07.072Z,3.50
2018-07-26T16:20:35.466Z,4.33
2018-07-26T16:23:03.900Z,7.13
2018-07-26T16:25:32.441Z,6.63
2018-07-26T16:28:00.511Z,7.73
2018-07-26T16:30:29.051Z,7.37
2018-07-26T16:32:57.494Z,3.10
2018-07-26T16:35:25.921Z,4.23
2018-07-26T16:37:55.321Z,4.87
2018-07-26T16:40:23.868Z,4.07
2018-07-26T16:42:52.344Z,5.60
2018-07-26T16:45:20.764Z,7.50
2018-07-26T16:47:49.198Z,4.77
2018-07-26T16:50:17.696Z,6.00
2018-07-26T16:52:46.194Z,6.83
2018-07-26T16:55:14.592Z,9.00
2018-07-26T16:57:43.062Z,5.07
2018-07-26T17:00:11.738Z,6.37
2018-07-26T17:02:40.248Z,9.00
2018-07-26T17:05:09.085Z,9.20
2018-07-26T17:07:38.028Z,5.40
2018-07-26T17:10:06.384Z,5.47
2018-07-26T17:12:35.005Z,5.03
2018-07-26T17:15:03.433Z,4.80
2018-07-26T17:17:31.872Z,6.20
2018-07-26T17:20:00.327Z,9.53
2018-07-26T17:22:28.716Z,6.13
2018-07-26T17:24:57.174Z,9.90
2018-07-26T17:27:25.645Z,7.17
2018-07-26T17:29:55.951Z,9.03
2018-07-26T17:32:24.494Z,15.00
2018-07-26T17:34:52.977Z,7.77
2018-07-26T17:37:21.414Z,12.17
2018-07-26T17:39:49.877Z,8.40
2018-07-26T17:42:18.342Z,5.13
2018-07-26T17:44:46.819Z,6.87
2018-07-26T17:47:15.290Z,6.30
2018-07-26T17:49:43.715Z,6.00
2018-07-26T17:52:12.228Z,8.43
2018-07-26T17:54:40.729Z,6.47
2018-07-26T17:57:09.126Z,6.27
2018-07-26T17:59:37.540Z,11.07
2018-07-26T18:02:05.695Z,6.53
2018-07-26T18:04:34.174Z,7.00
2018-07-26T18:07:02.622Z,18.90
2018-07-26T18:09:31.084Z,6.70
2018-07-26T18:11:59.510Z,8.50
2018-07-26T18:14:27.940Z,6.43
2018-07-26T18:16:56.770Z,8.37
2018-07-26T18:19:25.193Z,16.53
2018-07-26T18:21:53.608Z,5.43
2018-07-26T18:24:22.300Z,7.33
2018-07-26T18:26:50.824Z,9.10
2018-07-26T18:29:19.397Z,6.37
2018-07-26T18:31:47.558Z,6.97
2018-07-26T18:34:16.155Z,7.27
2018-07-26T18:36:44.763Z,4.73
2018-07-26T18:39:13.886Z,8.13
2018-07-26T18:41:42.498Z,7.60
2018-07-26T18:44:11.076Z,4.90
2018-07-26T18:46:39.580Z,12.73
2018-07-26T18:49:09.215Z,5.73
2018-07-26T18:51:37.312Z,8.10
2018-07-26T18:54:06.120Z,6.30
2018-07-26T18:56:34.688Z,9.10
2018-07-26T18:59:03.265Z,5.50
2018-07-26T19:01:31.764Z,6.10
2018-07-26T19:04:00.255Z,8.13
2018-07-26T19:06:28.718Z,10.97
2018-07-26T19:08:57.413Z,17.00
2018-07-26T19:11:25.831Z,11.00
2018-07-26T19:13:54.350Z,15.77
2018-07-26T19:16:22.871Z,10.67
2018-07-26T19:18:51.276Z,9.03
2018-07-26T19:21:19.751Z,11.40
2018-07-26T19:23:48.469Z,9.30
2018-07-26T19:26:17.059Z,10.57
2018-07-26T19:28:45.478Z,10.30
2018-07-26T19:31:14.241Z,8.87
2018-07-26T19:33:42.725Z,14.93
2018-07-26T19:36:11.194Z,11.10
2018-07-26T19:38:39.601Z,7.27
2018-07-26T19:41:08.105Z,7.30
2018-07-26T19:43:36.297Z,7.70
2018-07-26T19:46:04.431Z,8.67
2018-07-26T19:48:32.841Z,7.30
2018-07-26T19:51:01.501Z,9.90
2018-07-26T19:53:29.962Z,9.43
2018-07-26T19:55:58.385Z,10.47
2018-07-26T19:58:26.828Z,13.70
2018-07-26T20:00:55.318Z,10.73
2018-07-26T20:03:23.907Z,13.30
2018-07-26T20:05:52.364Z,8.43
2018-07-26T20:08:20.905Z,13.23
2018-07-26T20:10:49.384Z,11.30
2018-07-26T20:13:17.873Z,9.80
2018-07-26T20:15:46.368Z,10.47
2018-07-26T20:18:14.853Z,12.13
2018-07-26T20:20:43.254Z,12.00
2018-07-26T20:23:11.802Z,15.70
2018-07-26T20:25:45.052Z,11.10
2018-07-26T20:28:13.677Z,7.40
2018-07-26T20:30:42.204Z,13.17
2018-07-26T20:33:11.380Z,13.50
2018-07-26T20:35:39.808Z,12.20
2018-07-26T20:38:09.282Z,10.57
2018-07-26T20:40:37.712Z,10.60
2018-07-26T20:43:06.536Z,6.53
2018-07-26T20:45:35.340Z,5.70
2018-07-26T20:48:03.795Z,8.60
2018-07-26T20:50:32.316Z,9.83
2018-07-26T20:53:00.752Z,9.60
2018-07-26T20:55:29.265Z,6.97
2018-07-26T20:57:57.719Z,5.73
2018-07-26T21:00:26.147Z,6.60
2018-07-26T21:02:54.656Z,8.10
2018-07-26T21:05:23.162Z,7.40
2018-07-26T21:07:51.532Z,11.03
2018-07-26T21:10:20.061Z,7.93
2018-07-26T21:12:48.516Z,11.73
2018-07-26T21:15:16.933Z,10.40
2018-07-26T21:17:45.455Z,6.20
2018-07-26T21:20:13.939Z,7.30
2018-07-26T21:22:42.363Z,9.83
2018-07-26T21:25:10.785Z,7.63
2018-07-26T21:27:39.496Z,7.77
2018-07-26T21:30:08.164Z,11.10
2018-07-26T21:32:36.860Z,8.77
2018-07-26T21:35:06.418Z,11.00
2018-07-26T21:37:34.802Z,6.47
2018-07-26T21:40:03.273Z,12.23
2018-07-26T21:42:31.795Z,6.40
2018-07-26T21:45:00.213Z,9.13
2018-07-26T21:47:28.706Z,7.23
2018-07-26T21:49:57.108Z,7.13
2018-07-26T21:52:25.540Z,14.83
2018-07-26T21:54:54.172Z,9.20
2018-07-26T21:57:22.764Z,6.37
2018-07-26T21:59:51.165Z,8.33
2018-07-26T22:02:19.649Z,9.60
2018-07-26T22:04:48.071Z,14.23
2018-07-26T22:07:16.473Z,6.83
2018-07-26T22:09:44.872Z,12.30
2018-07-26T22:12:13.293Z,5.83
2018-07-26T22:14:41.442Z,12.73
2018-07-26T22:17:09.849Z,15.13
2018-07-26T22:19:38.308Z,12.43
2018-07-26T22:22:07.010Z,9.33
2018-07-26T22:24:35.365Z,8.20
2018-07-26T22:27:03.764Z,7.70
2018-07-26T22:29:32.165Z,8.60
2018-07-26T22:32:00.677Z,8.73
2018-07-26T22:34:29.297Z,11.63
2018-07-26T22:36:57.702Z,10.90
2018-07-26T22:39:26.481Z,17.63
2018-07-26T22:41:54.856Z,11.70
2018-07-26T22:44:23.324Z,11.70
2018-07-26T22:46:51.460Z,11.30
2018-07-26T22:49:20.088Z,12.90
2018-07-26T22:51:48.512Z,11.23
2018-07-26T22:54:16.915Z,6.23
2018-07-26T22:56:45.323Z,10.00
2018-07-26T22:59:13.725Z,8.83
2018-07-26T23:01:42.339Z,8.60
2018-07-26T23:04:10.749Z,13.37
2018-07-26T23:06:39.136Z,6.27
2018-07-26T23:09:09.216Z,6.47
2018-07-26T23:11:37.632Z,9.40
2018-07-26T23:14:06.302Z,5.77
2018-07-26T23:16:34.712Z,5.33
2018-07-26T23:19:03.116Z,8.73
2018-07-26T23:21:31.617Z,4.50
2018-07-26T23:24:00.064Z,6.03
2018-07-26T23:26:28.461Z,6.37
2018-07-26T23:28:56.899Z,5.97
2018-07-26T23:31:25.323Z,9.90
2018-07-26T23:33:53.753Z,7.50
2018-07-26T23:36:22.182Z,6.33
2018-07-26T23:38:50.584Z,6.20
2018-07-26T23:41:19.021Z,6.37
2018-07-26T23:43:47.428Z,4.33
2018-07-26T23:46:16.001Z,6.20
2018-07-26T23:48:44.440Z,9.57
2018-07-26T23:51:12.849Z,9.97
2018-07-26T23:53:41.244Z,5.40
2018-07-26T23:56:09.620Z,4.10
2018-07-26T23:58:38.048Z,4.60
